sensor_id;sensor_type;location;lat;lon;timestamp;pressure;altitude;pressure_sealevel;temperature;humidity
13836;BME280;6988;52.614;13.500;2023-04-05T00:03:08;54877.66;;;-143.77;65.36
13836;BME280;6988;52.614;13.500;2023-04-05T00:08:01;54879.69;;;-143.77;65.89
13836;BME280;6988;52.614;13.500;2023-04-05T00:12:53;54865.34;;;-143.77;65.74
13836;BME280;6988;52.614;13.500;2023-04-05T00:17:47;54889.97;;;-143.77;65.90
13836;BME280;6988;52.614;13.500;2023-04-05T00:22:40;54894.06;;;-143.77;65.11
13836;BME280;6988;52.614;13.500;2023-04-05T00:27:32;54853.03;;;-143.77;64.86
13836;BME280;6988;52.614;13.500;2023-04-05T00:32:24;54902.28;;;-143.77;64.54
13836;BME280;6988;52.614;13.500;2023-04-05T00:37:17;54894.06;;;-143.77;64.45
13836;BME280;6988;52.614;13.500;2023-04-05T00:42:10;54894.06;;;-143.77;64.19
13836;BME280;6988;52.614;13.500;2023-04-05T00:47:03;54910.47;;;-143.77;64.26
13836;BME280;6988;52.614;13.500;2023-04-05T00:51:56;54889.97;;;-143.77;64.74
13836;BME280;6988;52.614;13.500;2023-04-05T01:03:26;54887.91;;;-143.77;66.15
13836;BME280;6988;52.614;13.500;2023-04-05T01:08:28;54894.06;;;-143.77;66.17
13836;BME280;6988;52.614;13.500;2023-04-05T01:13:25;54922.78;;;-143.77;66.76
13836;BME280;6988;52.614;13.500;2023-04-05T01:18:17;54939.22;;;-143.77;66.43
13836;BME280;6988;52.614;13.500;2023-04-05T01:23:36;54863.28;;;-143.77;66.18
13836;BME280;6988;52.614;13.500;2023-04-05T01:29:01;54883.81;;;-143.77;66.88
13836;BME280;6988;52.614;13.500;2023-04-05T01:34:13;54900.22;;;-143.77;67.11
13836;BME280;6988;52.614;13.500;2023-04-05T01:39:13;54937.16;;;-143.77;67.56
13836;BME280;6988;52.614;13.500;2023-04-05T01:44:06;54922.78;;;-143.77;67.76
13836;BME280;6988;52.614;13.500;2023-04-05T01:48:58;54931.00;;;-143.77;67.72
13836;BME280;6988;52.614;13.500;2023-04-05T01:53:51;54947.41;;;-143.77;68.07
13836;BME280;6988;52.614;13.500;2023-04-05T01:58:43;54914.59;;;-143.77;68.12
13836;BME280;6988;52.614;13.500;2023-04-05T02:03:34;54894.06;;;-143.77;68.54
13836;BME280;6988;52.614;13.500;2023-04-05T02:08:26;54916.63;;;-143.77;68.09
13836;BME280;6988;52.614;13.500;2023-04-05T02:13:19;54904.31;;;-143.77;68.33
13836;BME280;6988;52.614;13.500;2023-04-05T02:24:43;54898.16;;;-143.77;69.43
13836;BME280;6988;52.614;13.500;2023-04-05T02:29:36;54889.97;;;-143.77;69.67
13836;BME280;6988;52.614;13.500;2023-04-05T02:34:28;54916.63;;;-143.77;69.77
13836;BME280;6988;52.614;13.500;2023-04-05T02:39:22;54939.22;;;-143.77;68.98
13836;BME280;6988;52.614;13.500;2023-04-05T02:44:14;54902.28;;;-143.77;67.96
13836;BME280;6988;52.614;13.500;2023-04-05T02:49:07;54928.94;;;-143.77;66.94
13836;BME280;6988;52.614;13.500;2023-04-05T02:54:01;54863.28;;;-143.77;66.72
13836;BME280;6988;52.614;13.500;2023-04-05T03:05:27;54898.16;;;-143.77;66.68
13836;BME280;6988;52.614;13.500;2023-04-05T03:10:21;54904.31;;;-143.77;67.05
13836;BME280;6988;52.614;13.500;2023-04-05T03:15:21;54894.06;;;-143.77;67.07
13836;BME280;6988;52.614;13.500;2023-04-05T03:20:13;54904.31;;;-143.77;67.58
13836;BME280;6988;52.614;13.500;2023-04-05T03:25:07;54844.81;;;-143.77;67.54
13836;BME280;6988;52.614;13.500;2023-04-05T03:30:07;54877.66;;;-143.77;67.79
13836;BME280;6988;52.614;13.500;2023-04-05T03:35:05;54922.78;;;-143.77;68.11
13836;BME280;6988;52.614;13.500;2023-04-05T03:39:58;54871.50;;;-143.77;68.16
13836;BME280;6988;52.614;13.500;2023-04-05T03:44:52;54885.84;;;-143.77;68.22
13836;BME280;6988;52.614;13.500;2023-04-05T03:49:44;54892.00;;;-143.77;68.30
13836;BME280;6988;52.614;13.500;2023-04-05T03:54:36;54902.28;;;-143.77;67.79
13836;BME280;6988;52.614;13.500;2023-04-05T03:59:32;54859.19;;;-143.77;68.29
13836;BME280;6988;52.614;13.500;2023-04-05T04:04:27;54871.50;;;-143.77;68.41
13836;BME280;6988;52.614;13.500;2023-04-05T04:22:26;54857.13;;;-143.77;68.41
13836;BME280;6988;52.614;13.500;2023-04-05T04:27:41;54900.22;;;-143.77;68.56
13836;BME280;6988;52.614;13.500;2023-04-05T04:32:41;54887.91;;;-143.77;68.85
13836;BME280;6988;52.614;13.500;2023-04-05T04:38:03;54914.59;;;-143.77;69.14
13836;BME280;6988;52.614;13.500;2023-04-05T04:43:15;54865.34;;;-143.77;68.96
13836;BME280;6988;52.614;13.500;2023-04-05T04:48:27;54877.66;;;-143.77;69.48
13836;BME280;6988;52.614;13.500;2023-04-05T04:53:50;54881.75;;;-143.77;69.51
13836;BME280;6988;52.614;13.500;2023-04-05T04:58:56;54850.97;;;-143.77;69.83
13836;BME280;6988;52.614;13.500;2023-04-05T05:04:02;54879.69;;;-143.77;69.96
13836;BME280;6988;52.614;13.500;2023-04-05T05:09:10;54844.81;;;-143.77;69.78
13836;BME280;6988;52.614;13.500;2023-04-05T05:14:21;54869.44;;;-143.77;70.16
13836;BME280;6988;52.614;13.500;2023-04-05T05:19:28;54863.28;;;-143.77;69.85
13836;BME280;6988;52.614;13.500;2023-04-05T05:30:48;54877.66;;;-143.77;69.45
13836;BME280;6988;52.614;13.500;2023-04-05T05:35:41;54869.44;;;-143.77;69.86
13836;BME280;6988;52.614;13.500;2023-04-05T05:40:36;54832.50;;;-143.77;69.65
13836;BME280;6988;52.614;13.500;2023-04-05T05:45:35;54848.91;;;-143.77;69.91
13836;BME280;6988;52.614;13.500;2023-04-05T05:50:35;54840.72;;;-143.77;69.95
13836;BME280;6988;52.614;13.500;2023-04-05T05:55:29;54814.03;;;-143.77;69.74
13836;BME280;6988;52.614;13.500;2023-04-05T06:00:24;54855.06;;;-143.77;69.78
13836;BME280;6988;52.614;13.500;2023-04-05T06:05:17;54816.09;;;-143.77;68.61
13836;BME280;6988;52.614;13.500;2023-04-05T06:10:16;54793.50;;;-143.77;68.31
13836;BME280;6988;52.614;13.500;2023-04-05T06:15:10;54805.81;;;-143.77;68.18
13836;BME280;6988;52.614;13.500;2023-04-05T06:20:07;54799.66;;;-143.77;67.83
13836;BME280;6988;52.614;13.500;2023-04-05T06:25:01;54811.97;;;-143.77;68.05
13836;BME280;6988;52.614;13.500;2023-04-05T06:41:26;54785.31;;;-143.77;67.81
13836;BME280;6988;52.614;13.500;2023-04-05T06:46:18;54766.84;;;-143.77;67.20
13836;BME280;6988;52.614;13.500;2023-04-05T06:51:10;54793.50;;;-143.77;66.17
13836;BME280;6988;52.614;13.500;2023-04-05T06:56:02;54820.19;;;-143.77;65.66
13836;BME280;6988;52.614;13.500;2023-04-05T07:00:55;54779.16;;;-143.77;65.03
13836;BME280;6988;52.614;13.500;2023-04-05T07:05:51;54744.25;;;-143.77;65.51
13836;BME280;6988;52.614;13.500;2023-04-05T07:10:43;54740.16;;;-143.77;65.68
13836;BME280;6988;52.614;13.500;2023-04-05T07:15:36;54721.69;;;-143.77;65.60
13836;BME280;6988;52.614;13.500;2023-04-05T07:20:29;54680.66;;;-143.77;64.38
13836;BME280;6988;52.614;13.500;2023-04-05T07:25:21;54688.84;;;-143.77;61.37
13836;BME280;6988;52.614;13.500;2023-04-05T07:30:13;54680.66;;;-143.77;61.89
13836;BME280;6988;52.614;13.500;2023-04-05T07:35:06;54534.94;;;-143.77;62.26
13836;BME280;6988;52.614;13.500;2023-04-05T07:40:00;54645.75;;;-143.77;60.12
13836;BME280;6988;52.614;13.500;2023-04-05T07:44:52;54660.13;;;-143.77;58.83
13836;BME280;6988;52.614;13.500;2023-04-05T07:49:45;54668.34;;;-143.77;59.24
13836;BME280;6988;52.614;13.500;2023-04-05T07:54:37;54567.78;;;-143.77;60.60
13836;BME280;6988;52.614;13.500;2023-04-05T07:59:30;54506.22;;;-143.77;59.00
13836;BME280;6988;52.614;13.500;2023-04-05T08:04:22;54594.47;;;-143.77;58.59
13836;BME280;6988;52.614;13.500;2023-04-05T08:09:15;54516.50;;;-143.77;58.10
13836;BME280;6988;52.614;13.500;2023-04-05T08:14:07;54526.75;;;-143.77;56.51
13836;BME280;6988;52.614;13.500;2023-04-05T08:19:01;54561.63;;;-143.77;57.84
13836;BME280;6988;52.614;13.500;2023-04-05T08:23:53;54504.19;;;-143.77;54.92
13836;BME280;6988;52.614;13.500;2023-04-05T08:28:45;54561.63;;;-143.77;55.70
13836;BME280;6988;52.614;13.500;2023-04-05T08:33:37;54530.84;;;-143.77;52.77
13836;BME280;6988;52.614;13.500;2023-04-05T08:38:31;54543.16;;;-143.77;53.49
13836;BME280;6988;52.614;13.500;2023-04-05T08:43:33;54565.72;;;-143.77;54.92
13836;BME280;6988;52.614;13.500;2023-04-05T08:48:32;54530.84;;;-143.77;52.35
13836;BME280;6988;52.614;13.500;2023-04-05T08:53:25;54549.31;;;-143.77;53.15
13836;BME280;6988;52.614;13.500;2023-04-05T09:03:34;54530.84;;;-143.77;50.92
13836;BME280;6988;52.614;13.500;2023-04-05T09:08:26;54514.44;;;-143.77;50.30
13836;BME280;6988;52.614;13.500;2023-04-05T09:13:18;54516.50;;;-143.77;49.46
13836;BME280;6988;52.614;13.500;2023-04-05T09:18:11;54553.41;;;-143.77;49.40
13836;BME280;6988;52.614;13.500;2023-04-05T09:23:04;54578.03;;;-143.77;46.72
13836;BME280;6988;52.614;13.500;2023-04-05T09:27:57;54537.00;;;-143.77;52.21
13836;BME280;6988;52.614;13.500;2023-04-05T09:32:51;54508.28;;;-143.77;48.46
13836;BME280;6988;52.614;13.500;2023-04-05T09:37:51;54381.06;;;-143.77;50.88
13836;BME280;6988;52.614;13.500;2023-04-05T09:42:45;54405.69;;;-143.77;47.00
13836;BME280;6988;52.614;13.500;2023-04-05T09:47:38;54481.59;;;-143.77;46.41
13836;BME280;6988;52.614;13.500;2023-04-05T09:52:32;54477.50;;;-143.77;46.79
13836;BME280;6988;52.614;13.500;2023-04-05T09:57:27;54467.25;;;-143.77;47.20
13836;BME280;6988;52.614;13.500;2023-04-05T10:02:22;54475.44;;;-143.77;48.22
13836;BME280;6988;52.614;13.500;2023-04-05T10:07:16;54479.56;;;-143.77;48.39
13836;BME280;6988;52.614;13.500;2023-04-05T10:12:11;54498.03;;;-143.77;48.26
13836;BME280;6988;52.614;13.500;2023-04-05T10:17:11;54549.31;;;-143.77;50.59
13836;BME280;6988;52.614;13.500;2023-04-05T10:22:14;54520.59;;;-143.77;53.88
13836;BME280;6988;52.614;13.500;2023-04-05T10:27:13;54526.75;;;-143.77;55.16
13836;BME280;6988;52.614;13.500;2023-04-05T10:32:17;54500.06;;;-143.77;55.20
13836;BME280;6988;52.614;13.500;2023-04-05T10:37:27;54442.63;;;-143.77;51.98
13836;BME280;6988;52.614;13.500;2023-04-05T10:42:26;54426.19;;;-143.77;50.33
13836;BME280;6988;52.614;13.500;2023-04-05T10:47:25;54403.63;;;-143.77;48.67
13836;BME280;6988;52.614;13.500;2023-04-05T10:52:21;54418.00;;;-143.77;49.71
13836;BME280;6988;52.614;13.500;2023-04-05T10:57:14;54452.88;;;-143.77;46.53
13836;BME280;6988;52.614;13.500;2023-04-05T11:02:08;54432.34;;;-143.77;48.09
13836;BME280;6988;52.614;13.500;2023-04-05T11:07:12;54379.00;;;-143.77;48.22
13836;BME280;6988;52.614;13.500;2023-04-05T13:45:17;54364.66;;;-143.77;40.85
13836;BME280;6988;52.614;13.500;2023-04-05T13:50:09;54368.75;;;-143.77;39.72
13836;BME280;6988;52.614;13.500;2023-04-05T13:55:04;54370.81;;;-143.77;40.65
13836;BME280;6988;52.614;13.500;2023-04-05T13:59:56;54317.44;;;-143.77;41.94
13836;BME280;6988;52.614;13.500;2023-04-05T14:04:50;54307.19;;;-143.77;40.51
13836;BME280;6988;52.614;13.500;2023-04-05T14:09:42;54253.84;;;-143.77;41.57
13836;BME280;6988;52.614;13.500;2023-04-05T14:14:35;54303.09;;;-143.77;39.48
13836;BME280;6988;52.614;13.500;2023-04-05T14:19:26;54188.19;;;-143.77;38.87
13836;BME280;6988;52.614;13.500;2023-04-05T14:24:20;54282.56;;;-143.77;38.02
13836;BME280;6988;52.614;13.500;2023-04-05T14:29:11;54340.03;;;-143.77;38.95
13836;BME280;6988;52.614;13.500;2023-04-05T14:34:03;54284.63;;;-143.77;39.24
13836;BME280;6988;52.614;13.500;2023-04-05T14:38:56;54274.38;;;-143.77;40.06
13836;BME280;6988;52.614;13.500;2023-04-05T14:43:49;54319.50;;;-143.77;38.88
13836;BME280;6988;52.614;13.500;2023-04-05T14:48:41;54329.75;;;-143.77;40.66
13836;BME280;6988;52.614;13.500;2023-04-05T14:53:33;54340.03;;;-143.77;40.04
13836;BME280;6988;52.614;13.500;2023-04-05T14:58:25;54387.22;;;-143.77;40.88
13836;BME280;6988;52.614;13.500;2023-04-05T15:03:20;54413.88;;;-143.77;40.04
13836;BME280;6988;52.614;13.500;2023-04-05T15:08:12;54463.13;;;-143.77;41.39
13836;BME280;6988;52.614;13.500;2023-04-05T15:13:04;54420.03;;;-143.77;41.93
13836;BME280;6988;52.614;13.500;2023-04-05T15:17:56;54426.19;;;-143.77;42.48
13836;BME280;6988;52.614;13.500;2023-04-05T15:22:49;54333.88;;;-143.77;42.79
13836;BME280;6988;52.614;13.500;2023-04-05T15:27:41;54374.91;;;-143.77;40.33
13836;BME280;6988;52.614;13.500;2023-04-05T15:32:33;54397.47;;;-143.77;41.32
13836;BME280;6988;52.614;13.500;2023-04-05T15:37:25;54383.13;;;-143.77;42.64
13836;BME280;6988;52.614;13.500;2023-04-05T15:42:18;54360.53;;;-143.77;42.88
13836;BME280;6988;52.614;13.500;2023-04-05T15:47:11;54397.47;;;-143.77;41.35
13836;BME280;6988;52.614;13.500;2023-04-05T15:52:03;54450.81;;;-143.77;42.09
13836;BME280;6988;52.614;13.500;2023-04-05T15:56:55;54434.41;;;-143.77;42.16
13836;BME280;6988;52.614;13.500;2023-04-05T16:01:49;54405.69;;;-143.77;41.95
13836;BME280;6988;52.614;13.500;2023-04-05T16:06:41;54436.47;;;-143.77;41.66
13836;BME280;6988;52.614;13.500;2023-04-05T16:11:33;54438.50;;;-143.77;42.01
13836;BME280;6988;52.614;13.500;2023-04-05T16:16:25;54471.34;;;-143.77;41.25
13836;BME280;6988;52.614;13.500;2023-04-05T16:21:19;54537.00;;;-143.77;41.62
13836;BME280;6988;52.614;13.500;2023-04-05T16:26:11;54467.25;;;-143.77;43.25
13836;BME280;6988;52.614;13.500;2023-04-05T16:31:03;54495.97;;;-143.77;43.17
13836;BME280;6988;52.614;13.500;2023-04-05T16:35:55;54524.69;;;-143.77;46.52
13836;BME280;6988;52.614;13.500;2023-04-05T16:40:48;54498.03;;;-143.77;45.56
13836;BME280;6988;52.614;13.500;2023-04-05T16:45:40;54514.44;;;-143.77;45.98
13836;BME280;6988;52.614;13.500;2023-04-05T16:50:33;54537.00;;;-143.77;45.91
13836;BME280;6988;52.614;13.500;2023-04-05T16:55:25;54508.28;;;-143.77;46.05
13836;BME280;6988;52.614;13.500;2023-04-05T17:00:19;54549.31;;;-143.77;45.00
13836;BME280;6988;52.614;13.500;2023-04-05T17:05:11;54528.78;;;-143.77;45.61
13836;BME280;6988;52.614;13.500;2023-04-05T17:10:04;54553.41;;;-143.77;46.20
13836;BME280;6988;52.614;13.500;2023-04-05T17:14:56;54526.75;;;-143.77;46.61
13836;BME280;6988;52.614;13.500;2023-04-05T17:19:49;54520.59;;;-143.77;46.90
13836;BME280;6988;52.614;13.500;2023-04-05T17:24:44;54524.69;;;-143.77;47.29
13836;BME280;6988;52.614;13.500;2023-04-05T17:29:36;54553.41;;;-143.77;48.49
13836;BME280;6988;52.614;13.500;2023-04-05T17:34:28;54565.72;;;-143.77;50.43
13836;BME280;6988;52.614;13.500;2023-04-05T17:39:21;54561.63;;;-143.77;50.74
13836;BME280;6988;52.614;13.500;2023-04-05T17:44:14;54555.47;;;-143.77;51.89
13836;BME280;6988;52.614;13.500;2023-04-05T17:49:06;54547.25;;;-143.77;56.58
13836;BME280;6988;52.614;13.500;2023-04-05T17:53:58;54571.88;;;-143.77;58.53
13836;BME280;6988;52.614;13.500;2023-04-05T17:58:51;54578.03;;;-143.77;59.29
13836;BME280;6988;52.614;13.500;2023-04-05T18:03:43;54573.94;;;-143.77;60.43
13836;BME280;6988;52.614;13.500;2023-04-05T18:08:35;54635.50;;;-143.77;62.16
13836;BME280;6988;52.614;13.500;2023-04-05T18:13:27;54600.63;;;-143.77;62.70
13836;BME280;6988;52.614;13.500;2023-04-05T18:18:22;54680.66;;;-143.77;59.96
13836;BME280;6988;52.614;13.500;2023-04-05T18:23:14;54660.13;;;-143.77;59.65
13836;BME280;6988;52.614;13.500;2023-04-05T18:28:07;54598.56;;;-143.77;60.05
13836;BME280;6988;52.614;13.500;2023-04-05T18:32:59;54623.19;;;-143.77;59.87
13836;BME280;6988;52.614;13.500;2023-04-05T18:37:52;54590.34;;;-143.77;60.73
13836;BME280;6988;52.614;13.500;2023-04-05T18:42:44;54633.44;;;-143.77;61.90
13836;BME280;6988;52.614;13.500;2023-04-05T18:47:36;54619.09;;;-143.77;63.59
13836;BME280;6988;52.614;13.500;2023-04-05T18:52:28;54641.66;;;-143.77;64.47
13836;BME280;6988;52.614;13.500;2023-04-05T18:57:24;54623.19;;;-143.77;64.14
13836;BME280;6988;52.614;13.500;2023-04-05T19:02:16;54660.13;;;-143.77;65.09
13836;BME280;6988;52.614;13.500;2023-04-05T19:07:08;54635.50;;;-143.77;63.62
13836;BME280;6988;52.614;13.500;2023-04-05T19:12:00;54641.66;;;-143.77;63.37
13836;BME280;6988;52.614;13.500;2023-04-05T19:16:53;54643.72;;;-143.77;63.09
13836;BME280;6988;52.614;13.500;2023-04-05T19:21:45;54668.34;;;-143.77;63.11
13836;BME280;6988;52.614;13.500;2023-04-05T19:26:37;54651.91;;;-143.77;64.08
13836;BME280;6988;52.614;13.500;2023-04-05T19:36:29;54651.91;;;-143.77;66.05
13836;BME280;6988;52.614;13.500;2023-04-05T19:41:23;54701.16;;;-143.77;65.98
13836;BME280;6988;52.614;13.500;2023-04-05T19:46:16;54672.44;;;-143.77;65.64
13836;BME280;6988;52.614;13.500;2023-04-05T19:51:10;54668.34;;;-143.77;65.85
13836;BME280;6988;52.614;13.500;2023-04-05T19:56:10;54658.06;;;-143.77;65.94
13836;BME280;6988;52.614;13.500;2023-04-05T20:01:05;54707.31;;;-143.77;65.42
13836;BME280;6988;52.614;13.500;2023-04-05T20:06:02;54740.16;;;-143.77;65.98
13836;BME280;6988;52.614;13.500;2023-04-05T20:10:55;54686.81;;;-143.77;66.36
13836;BME280;6988;52.614;13.500;2023-04-05T20:15:49;54721.69;;;-143.77;66.25
13836;BME280;6988;52.614;13.500;2023-04-05T20:20:43;54713.47;;;-143.77;66.35
13836;BME280;6988;52.614;13.500;2023-04-05T20:25:37;54717.59;;;-143.77;66.41
13836;BME280;6988;52.614;13.500;2023-04-05T20:30:31;54717.59;;;-143.77;66.25
13836;BME280;6988;52.614;13.500;2023-04-05T20:35:36;54721.69;;;-143.77;65.81
13836;BME280;6988;52.614;13.500;2023-04-05T20:40:28;54695.00;;;-143.77;66.21
13836;BME280;6988;52.614;13.500;2023-04-05T20:45:19;54713.47;;;-143.77;66.45
13836;BME280;6988;52.614;13.500;2023-04-05T20:50:11;54668.34;;;-143.77;66.37
13836;BME280;6988;52.614;13.500;2023-04-05T20:55:05;54715.53;;;-143.77;66.34
13836;BME280;6988;52.614;13.500;2023-04-05T20:59:57;54758.63;;;-143.77;66.49
13836;BME280;6988;52.614;13.500;2023-04-05T21:04:51;54723.75;;;-143.77;66.86
13836;BME280;6988;52.614;13.500;2023-04-05T21:15:13;54717.59;;;-143.77;67.17
13836;BME280;6988;52.614;13.500;2023-04-05T21:20:06;54707.31;;;-143.77;68.14
13836;BME280;6988;52.614;13.500;2023-04-05T21:24:58;54703.22;;;-143.77;67.80
13836;BME280;6988;52.614;13.500;2023-04-05T21:29:50;54715.53;;;-143.77;68.15
13836;BME280;6988;52.614;13.500;2023-04-05T21:34:43;54713.47;;;-143.77;68.21
13836;BME280;6988;52.614;13.500;2023-04-05T21:39:35;54717.59;;;-143.77;68.32
13836;BME280;6988;52.614;13.500;2023-04-05T21:44:27;54740.16;;;-143.77;68.27
13836;BME280;6988;52.614;13.500;2023-04-05T22:04:12;54729.91;;;-143.77;67.98
13836;BME280;6988;52.614;13.500;2023-04-05T22:09:03;54705.28;;;-143.77;68.50
13836;BME280;6988;52.614;13.500;2023-04-05T22:13:55;54746.31;;;-143.77;68.51
13836;BME280;6988;52.614;13.500;2023-04-05T22:18:47;54750.41;;;-143.77;68.81
13836;BME280;6988;52.614;13.500;2023-04-05T22:23:40;54752.47;;;-143.77;69.23
13836;BME280;6988;52.614;13.500;2023-04-05T22:28:32;54758.63;;;-143.77;69.57
13836;BME280;6988;52.614;13.500;2023-04-05T22:33:24;54729.91;;;-143.77;69.51
13836;BME280;6988;52.614;13.500;2023-04-05T22:38:15;54746.31;;;-143.77;69.23
13836;BME280;6988;52.614;13.500;2023-04-05T22:43:09;54746.31;;;-143.77;69.43
13836;BME280;6988;52.614;13.500;2023-04-05T22:48:01;54721.69;;;-143.77;69.07
13836;BME280;6988;52.614;13.500;2023-04-05T22:52:53;54766.84;;;-143.77;69.32
13836;BME280;6988;52.614;13.500;2023-04-05T22:57:44;54773.00;;;-143.77;69.46
13836;BME280;6988;52.614;13.500;2023-04-05T23:02:38;54744.25;;;-143.77;70.03
13836;BME280;6988;52.614;13.500;2023-04-05T23:07:30;54756.56;;;-143.77;70.31
13836;BME280;6988;52.614;13.500;2023-04-05T23:12:21;54762.72;;;-143.77;70.75
13836;BME280;6988;52.614;13.500;2023-04-05T23:17:13;54766.84;;;-143.77;71.24
13836;BME280;6988;52.614;13.500;2023-04-05T23:22:06;54723.75;;;-143.77;71.20
13836;BME280;6988;52.614;13.500;2023-04-05T23:26:58;54762.72;;;-143.77;70.85
13836;BME280;6988;52.614;13.500;2023-04-05T23:31:50;54762.72;;;-143.77;70.77
13836;BME280;6988;52.614;13.500;2023-04-05T23:36:43;54742.22;;;-143.77;71.01
13836;BME280;6988;52.614;13.500;2023-04-05T23:41:36;54731.94;;;-143.77;71.27
13836;BME280;6988;52.614;13.500;2023-04-05T23:46:28;54766.84;;;-143.77;71.40
13836;BME280;6988;52.614;13.500;2023-04-05T23:51:20;54746.31;;;-143.77;71.20
13836;BME280;6988;52.614;13.500;2023-04-05T23:56:12;54766.84;;;-143.77;71.42
